sensor_id;sensor_type;location;lat;lon;timestamp;P1;durP1;ratioP1;P2;durP2;ratioP2
62071;SDS011;48031;48.542;13.232;2022-12-11T00:03:01;34.58;;;12.75;;
62071;SDS011;48031;48.542;13.232;2022-12-11T00:07:03;23.33;;;9.48;;
62071;SDS011;48031;48.542;13.232;2022-12-11T00:11:08;26.73;;;11.90;;
62071;SDS011;48031;48.542;13.232;2022-12-11T00:15:13;28.80;;;11.80;;
62071;SDS011;48031;48.542;13.232;2022-12-11T00:19:14;25.33;;;10.60;;
62071;SDS011;48031;48.542;13.232;2022-12-11T00:23:16;28.10;;;11.68;;
62071;SDS011;48031;48.542;13.232;2022-12-11T00:27:18;27.50;;;11.07;;
62071;SDS011;48031;48.542;13.232;2022-12-11T00:31:21;21.67;;;9.35;;
62071;SDS011;48031;48.542;13.232;2022-12-11T00:35:24;26.25;;;9.55;;
62071;SDS011;48031;48.542;13.232;2022-12-11T00:39:26;26.10;;;11.38;;
62071;SDS011;48031;48.542;13.232;2022-12-11T00:43:27;25.77;;;9.57;;
62071;SDS011;48031;48.542;13.232;2022-12-11T00:47:29;26.90;;;11.02;;
62071;SDS011;48031;48.542;13.232;2022-12-11T00:51:31;25.63;;;11.60;;
62071;SDS011;48031;48.542;13.232;2022-12-11T00:55:39;24.98;;;11.20;;
62071;SDS011;48031;48.542;13.232;2022-12-11T00:59:42;23.05;;;10.05;;
62071;SDS011;48031;48.542;13.232;2022-12-11T01:03:44;25.30;;;11.00;;
62071;SDS011;48031;48.542;13.232;2022-12-11T01:07:47;20.73;;;8.23;;
62071;SDS011;48031;48.542;13.232;2022-12-11T01:11:49;23.38;;;9.50;;
62071;SDS011;48031;48.542;13.232;2022-12-11T01:15:51;22.35;;;9.25;;
62071;SDS011;48031;48.542;13.232;2022-12-11T01:19:53;23.17;;;10.18;;
62071;SDS011;48031;48.542;13.232;2022-12-11T01:23:55;23.15;;;9.68;;
62071;SDS011;48031;48.542;13.232;2022-12-11T01:27:58;21.00;;;9.23;;
62071;SDS011;48031;48.542;13.232;2022-12-11T01:32:00;18.00;;;8.35;;
62071;SDS011;48031;48.542;13.232;2022-12-11T01:36:06;21.88;;;9.75;;
62071;SDS011;48031;48.542;13.232;2022-12-11T01:40:15;14.95;;;7.68;;
62071;SDS011;48031;48.542;13.232;2022-12-11T01:48:22;17.67;;;8.35;;
62071;SDS011;48031;48.542;13.232;2022-12-11T01:52:27;17.45;;;7.50;;
62071;SDS011;48031;48.542;13.232;2022-12-11T01:56:30;17.10;;;8.00;;
62071;SDS011;48031;48.542;13.232;2022-12-11T02:00:34;18.77;;;8.13;;
62071;SDS011;48031;48.542;13.232;2022-12-11T02:04:37;17.98;;;7.57;;
62071;SDS011;48031;48.542;13.232;2022-12-11T02:08:40;22.08;;;9.85;;
62071;SDS011;48031;48.542;13.232;2022-12-11T02:17:11;14.00;;;6.40;;
62071;SDS011;48031;48.542;13.232;2022-12-11T02:29:50;18.67;;;7.93;;
62071;SDS011;48031;48.542;13.232;2022-12-11T02:33:58;18.60;;;8.15;;
62071;SDS011;48031;48.542;13.232;2022-12-11T02:38:07;20.13;;;7.90;;
62071;SDS011;48031;48.542;13.232;2022-12-11T02:42:13;14.23;;;6.88;;
62071;SDS011;48031;48.542;13.232;2022-12-11T02:46:17;19.17;;;7.78;;
62071;SDS011;48031;48.542;13.232;2022-12-11T02:50:21;18.92;;;8.10;;
62071;SDS011;48031;48.542;13.232;2022-12-11T02:54:27;15.32;;;7.68;;
62071;SDS011;48031;48.542;13.232;2022-12-11T02:58:33;17.65;;;7.97;;
62071;SDS011;48031;48.542;13.232;2022-12-11T03:02:43;19.55;;;8.65;;
62071;SDS011;48031;48.542;13.232;2022-12-11T03:06:46;21.95;;;10.20;;
62071;SDS011;48031;48.542;13.232;2022-12-11T03:10:51;18.52;;;8.30;;
62071;SDS011;48031;48.542;13.232;2022-12-11T03:14:53;20.23;;;9.25;;
62071;SDS011;48031;48.542;13.232;2022-12-11T03:36:10;15.43;;;7.32;;
62071;SDS011;48031;48.542;13.232;2022-12-11T03:40:15;14.05;;;6.30;;
62071;SDS011;48031;48.542;13.232;2022-12-11T03:44:20;16.13;;;7.72;;
62071;SDS011;48031;48.542;13.232;2022-12-11T03:48:23;16.35;;;6.72;;
62071;SDS011;48031;48.542;13.232;2022-12-11T03:52:28;13.27;;;6.57;;
62071;SDS011;48031;48.542;13.232;2022-12-11T03:56:33;18.25;;;8.05;;
62071;SDS011;48031;48.542;13.232;2022-12-11T04:00:38;15.75;;;7.05;;
62071;SDS011;48031;48.542;13.232;2022-12-11T04:04:40;12.45;;;6.25;;
62071;SDS011;48031;48.542;13.232;2022-12-11T04:08:42;15.65;;;6.75;;
62071;SDS011;48031;48.542;13.232;2022-12-11T04:12:44;13.18;;;6.15;;
62071;SDS011;48031;48.542;13.232;2022-12-11T04:16:46;19.67;;;9.50;;
62071;SDS011;48031;48.542;13.232;2022-12-11T04:20:48;12.32;;;5.88;;
62071;SDS011;48031;48.542;13.232;2022-12-11T04:25:11;15.63;;;6.20;;
62071;SDS011;48031;48.542;13.232;2022-12-11T04:29:14;13.80;;;5.85;;
62071;SDS011;48031;48.542;13.232;2022-12-11T04:33:15;13.25;;;5.90;;
62071;SDS011;48031;48.542;13.232;2022-12-11T04:37:17;18.98;;;8.43;;
62071;SDS011;48031;48.542;13.232;2022-12-11T04:41:19;11.02;;;5.05;;
62071;SDS011;48031;48.542;13.232;2022-12-11T04:45:21;14.10;;;6.03;;
62071;SDS011;48031;48.542;13.232;2022-12-11T04:49:23;13.63;;;6.68;;
62071;SDS011;48031;48.542;13.232;2022-12-11T04:53:24;16.05;;;7.50;;
62071;SDS011;48031;48.542;13.232;2022-12-11T04:57:27;17.48;;;7.32;;
62071;SDS011;48031;48.542;13.232;2022-12-11T05:01:28;14.60;;;6.85;;
62071;SDS011;48031;48.542;13.232;2022-12-11T05:05:30;16.42;;;8.02;;
62071;SDS011;48031;48.542;13.232;2022-12-11T05:09:32;15.80;;;6.63;;
62071;SDS011;48031;48.542;13.232;2022-12-11T05:13:34;13.93;;;6.07;;
62071;SDS011;48031;48.542;13.232;2022-12-11T05:17:36;12.13;;;5.82;;
62071;SDS011;48031;48.542;13.232;2022-12-11T05:21:38;17.25;;;7.70;;
62071;SDS011;48031;48.542;13.232;2022-12-11T05:25:40;17.20;;;8.60;;
62071;SDS011;48031;48.542;13.232;2022-12-11T05:29:41;17.00;;;7.82;;
62071;SDS011;48031;48.542;13.232;2022-12-11T05:33:43;14.77;;;7.38;;
62071;SDS011;48031;48.542;13.232;2022-12-11T05:37:46;16.02;;;7.57;;
62071;SDS011;48031;48.542;13.232;2022-12-11T05:41:48;19.90;;;7.15;;
62071;SDS011;48031;48.542;13.232;2022-12-11T05:45:50;15.75;;;7.47;;
62071;SDS011;48031;48.542;13.232;2022-12-11T05:49:51;17.33;;;6.97;;
62071;SDS011;48031;48.542;13.232;2022-12-11T05:53:54;15.73;;;7.60;;
62071;SDS011;48031;48.542;13.232;2022-12-11T05:57:57;20.15;;;7.85;;
62071;SDS011;48031;48.542;13.232;2022-12-11T06:01:58;16.33;;;7.85;;
62071;SDS011;48031;48.542;13.232;2022-12-11T06:06:01;17.95;;;7.20;;
62071;SDS011;48031;48.542;13.232;2022-12-11T06:10:03;14.15;;;7.07;;
62071;SDS011;48031;48.542;13.232;2022-12-11T06:14:06;18.35;;;8.00;;
62071;SDS011;48031;48.542;13.232;2022-12-11T06:18:07;18.30;;;8.00;;
62071;SDS011;48031;48.542;13.232;2022-12-11T06:22:09;17.15;;;7.63;;
62071;SDS011;48031;48.542;13.232;2022-12-11T06:26:11;15.95;;;7.82;;
62071;SDS011;48031;48.542;13.232;2022-12-11T06:30:14;15.60;;;7.75;;
62071;SDS011;48031;48.542;13.232;2022-12-11T06:34:16;15.32;;;7.38;;
62071;SDS011;48031;48.542;13.232;2022-12-11T06:38:18;17.48;;;7.60;;
62071;SDS011;48031;48.542;13.232;2022-12-11T06:42:20;16.35;;;7.40;;
62071;SDS011;48031;48.542;13.232;2022-12-11T06:46:22;13.32;;;6.15;;
62071;SDS011;48031;48.542;13.232;2022-12-11T06:50:24;15.48;;;7.55;;
62071;SDS011;48031;48.542;13.232;2022-12-11T06:54:26;16.50;;;7.40;;
62071;SDS011;48031;48.542;13.232;2022-12-11T06:58:28;16.75;;;8.32;;
62071;SDS011;48031;48.542;13.232;2022-12-11T07:02:30;14.23;;;6.43;;
62071;SDS011;48031;48.542;13.232;2022-12-11T07:06:32;15.55;;;7.28;;
62071;SDS011;48031;48.542;13.232;2022-12-11T07:10:34;15.02;;;7.13;;
62071;SDS011;48031;48.542;13.232;2022-12-11T07:14:36;15.98;;;6.32;;
62071;SDS011;48031;48.542;13.232;2022-12-11T07:18:56;15.35;;;6.68;;
62071;SDS011;48031;48.542;13.232;2022-12-11T07:22:58;24.17;;;9.77;;
62071;SDS011;48031;48.542;13.232;2022-12-11T07:26:59;22.27;;;9.82;;
62071;SDS011;48031;48.542;13.232;2022-12-11T07:31:12;17.63;;;8.40;;
62071;SDS011;48031;48.542;13.232;2022-12-11T07:35:19;15.13;;;7.55;;
62071;SDS011;48031;48.542;13.232;2022-12-11T07:39:21;18.90;;;9.10;;
62071;SDS011;48031;48.542;13.232;2022-12-11T07:43:22;9.93;;;5.55;;
62071;SDS011;48031;48.542;13.232;2022-12-11T07:47:24;15.60;;;7.28;;
62071;SDS011;48031;48.542;13.232;2022-12-11T07:51:27;16.17;;;7.53;;
62071;SDS011;48031;48.542;13.232;2022-12-11T07:55:31;18.65;;;8.77;;
62071;SDS011;48031;48.542;13.232;2022-12-11T07:59:33;15.68;;;6.57;;
62071;SDS011;48031;48.542;13.232;2022-12-11T08:03:34;21.45;;;9.55;;
62071;SDS011;48031;48.542;13.232;2022-12-11T08:07:36;17.75;;;7.95;;
62071;SDS011;48031;48.542;13.232;2022-12-11T08:11:38;16.70;;;7.60;;
62071;SDS011;48031;48.542;13.232;2022-12-11T08:15:40;14.13;;;6.90;;
62071;SDS011;48031;48.542;13.232;2022-12-11T08:19:42;16.70;;;8.02;;
62071;SDS011;48031;48.542;13.232;2022-12-11T08:23:43;20.52;;;9.13;;
62071;SDS011;48031;48.542;13.232;2022-12-11T08:27:45;20.90;;;8.45;;
62071;SDS011;48031;48.542;13.232;2022-12-11T08:31:47;19.55;;;9.23;;
62071;SDS011;48031;48.542;13.232;2022-12-11T08:35:49;18.02;;;7.93;;
62071;SDS011;48031;48.542;13.232;2022-12-11T08:39:51;14.20;;;7.05;;
62071;SDS011;48031;48.542;13.232;2022-12-11T08:43:53;16.75;;;7.28;;
62071;SDS011;48031;48.542;13.232;2022-12-11T08:47:57;17.95;;;8.13;;
62071;SDS011;48031;48.542;13.232;2022-12-11T08:51:59;18.38;;;7.53;;
62071;SDS011;48031;48.542;13.232;2022-12-11T08:56:11;15.07;;;7.22;;
62071;SDS011;48031;48.542;13.232;2022-12-11T09:00:15;29.70;;;11.38;;
62071;SDS011;48031;48.542;13.232;2022-12-11T09:04:17;19.23;;;8.35;;
62071;SDS011;48031;48.542;13.232;2022-12-11T09:08:19;16.65;;;7.82;;
62071;SDS011;48031;48.542;13.232;2022-12-11T09:12:21;18.15;;;8.05;;
62071;SDS011;48031;48.542;13.232;2022-12-11T09:16:24;18.90;;;8.75;;
62071;SDS011;48031;48.542;13.232;2022-12-11T09:20:27;20.17;;;8.32;;
62071;SDS011;48031;48.542;13.232;2022-12-11T09:24:30;17.15;;;7.88;;
62071;SDS011;48031;48.542;13.232;2022-12-11T09:28:31;16.63;;;8.13;;
62071;SDS011;48031;48.542;13.232;2022-12-11T09:32:33;19.23;;;8.45;;
62071;SDS011;48031;48.542;13.232;2022-12-11T09:36:36;16.55;;;7.65;;
62071;SDS011;48031;48.542;13.232;2022-12-11T09:40:39;20.13;;;8.50;;
62071;SDS011;48031;48.542;13.232;2022-12-11T09:49:36;19.13;;;9.43;;
62071;SDS011;48031;48.542;13.232;2022-12-11T09:53:41;19.65;;;8.27;;
62071;SDS011;48031;48.542;13.232;2022-12-11T10:01:59;18.90;;;8.52;;
62071;SDS011;48031;48.542;13.232;2022-12-11T10:10:43;14.73;;;7.97;;
62071;SDS011;48031;48.542;13.232;2022-12-11T10:19:24;16.75;;;8.00;;
62071;SDS011;48031;48.542;13.232;2022-12-11T10:23:33;18.35;;;8.52;;
62071;SDS011;48031;48.542;13.232;2022-12-11T10:27:42;16.75;;;9.18;;
62071;SDS011;48031;48.542;13.232;2022-12-11T10:31:48;13.15;;;7.07;;
62071;SDS011;48031;48.542;13.232;2022-12-11T10:35:54;14.40;;;7.95;;
62071;SDS011;48031;48.542;13.232;2022-12-11T10:39:57;15.90;;;7.43;;
62071;SDS011;48031;48.542;13.232;2022-12-11T10:43:59;15.45;;;7.88;;
62071;SDS011;48031;48.542;13.232;2022-12-11T10:48:03;15.57;;;8.25;;
62071;SDS011;48031;48.542;13.232;2022-12-11T10:52:11;14.68;;;7.53;;
62071;SDS011;48031;48.542;13.232;2022-12-11T10:56:24;19.48;;;9.63;;
62071;SDS011;48031;48.542;13.232;2022-12-11T11:00:38;17.02;;;7.85;;
62071;SDS011;48031;48.542;13.232;2022-12-11T11:04:41;14.57;;;7.65;;
62071;SDS011;48031;48.542;13.232;2022-12-11T11:08:46;14.23;;;8.05;;
62071;SDS011;48031;48.542;13.232;2022-12-11T11:13:00;17.77;;;8.93;;
62071;SDS011;48031;48.542;13.232;2022-12-11T11:17:02;14.15;;;8.20;;
62071;SDS011;48031;48.542;13.232;2022-12-11T11:21:04;15.63;;;8.48;;
62071;SDS011;48031;48.542;13.232;2022-12-11T11:25:14;16.75;;;7.90;;
62071;SDS011;48031;48.542;13.232;2022-12-11T11:29:28;15.45;;;7.60;;
62071;SDS011;48031;48.542;13.232;2022-12-11T11:33:33;14.82;;;7.97;;
62071;SDS011;48031;48.542;13.232;2022-12-11T11:37:37;13.35;;;7.28;;
62071;SDS011;48031;48.542;13.232;2022-12-11T11:46:02;16.92;;;7.80;;
62071;SDS011;48031;48.542;13.232;2022-12-11T11:50:30;13.98;;;6.82;;
62071;SDS011;48031;48.542;13.232;2022-12-11T11:54:42;15.77;;;8.18;;
62071;SDS011;48031;48.542;13.232;2022-12-11T12:02:57;11.80;;;7.03;;
62071;SDS011;48031;48.542;13.232;2022-12-11T12:15:56;12.35;;;7.10;;
62071;SDS011;48031;48.542;13.232;2022-12-11T12:33:01;10.13;;;6.88;;
62071;SDS011;48031;48.542;13.232;2022-12-11T12:41:54;10.05;;;5.43;;
62071;SDS011;48031;48.542;13.232;2022-12-11T12:50:44;8.23;;;5.10;;
62071;SDS011;48031;48.542;13.232;2022-12-11T12:54:50;10.93;;;6.23;;
62071;SDS011;48031;48.542;13.232;2022-12-11T12:59:23;12.18;;;7.05;;
62071;SDS011;48031;48.542;13.232;2022-12-11T13:03:31;14.52;;;8.82;;
62071;SDS011;48031;48.542;13.232;2022-12-11T13:07:35;8.38;;;6.57;;
62071;SDS011;48031;48.542;13.232;2022-12-11T13:11:38;12.18;;;7.68;;
62071;SDS011;48031;48.542;13.232;2022-12-11T13:15:40;9.00;;;4.88;;
62071;SDS011;48031;48.542;13.232;2022-12-11T13:19:45;9.32;;;6.07;;
62071;SDS011;48031;48.542;13.232;2022-12-11T13:23:48;9.77;;;5.95;;
62071;SDS011;48031;48.542;13.232;2022-12-11T13:27:50;12.82;;;7.22;;
62071;SDS011;48031;48.542;13.232;2022-12-11T13:32:00;15.50;;;7.70;;
62071;SDS011;48031;48.542;13.232;2022-12-11T13:36:23;13.43;;;7.28;;
62071;SDS011;48031;48.542;13.232;2022-12-11T13:40:31;13.88;;;7.28;;
62071;SDS011;48031;48.542;13.232;2022-12-11T13:44:38;12.18;;;7.20;;
62071;SDS011;48031;48.542;13.232;2022-12-11T13:48:46;13.65;;;7.45;;
62071;SDS011;48031;48.542;13.232;2022-12-11T13:52:58;15.32;;;7.57;;
62071;SDS011;48031;48.542;13.232;2022-12-11T14:01:18;13.07;;;7.05;;
62071;SDS011;48031;48.542;13.232;2022-12-11T14:05:24;16.38;;;7.20;;
62071;SDS011;48031;48.542;13.232;2022-12-11T14:09:26;14.20;;;7.32;;
62071;SDS011;48031;48.542;13.232;2022-12-11T14:13:35;9.00;;;5.07;;
62071;SDS011;48031;48.542;13.232;2022-12-11T14:17:40;11.05;;;5.90;;
62071;SDS011;48031;48.542;13.232;2022-12-11T14:21:58;15.25;;;7.15;;
62071;SDS011;48031;48.542;13.232;2022-12-11T14:30:30;16.17;;;7.82;;
62071;SDS011;48031;48.542;13.232;2022-12-11T14:34:40;10.77;;;6.38;;
62071;SDS011;48031;48.542;13.232;2022-12-11T14:38:51;13.35;;;6.72;;
62071;SDS011;48031;48.542;13.232;2022-12-11T14:43:04;14.37;;;7.77;;
62071;SDS011;48031;48.542;13.232;2022-12-11T14:47:12;13.48;;;6.35;;
62071;SDS011;48031;48.542;13.232;2022-12-11T14:51:19;15.52;;;7.18;;
62071;SDS011;48031;48.542;13.232;2022-12-11T14:55:22;10.23;;;5.50;;
62071;SDS011;48031;48.542;13.232;2022-12-11T14:59:31;12.65;;;6.30;;
62071;SDS011;48031;48.542;13.232;2022-12-11T15:03:41;12.13;;;5.88;;
62071;SDS011;48031;48.542;13.232;2022-12-11T15:12:17;10.45;;;5.43;;
62071;SDS011;48031;48.542;13.232;2022-12-11T15:16:20;11.90;;;5.65;;
62071;SDS011;48031;48.542;13.232;2022-12-11T15:20:27;10.30;;;5.40;;
62071;SDS011;48031;48.542;13.232;2022-12-11T15:24:35;10.48;;;5.60;;
62071;SDS011;48031;48.542;13.232;2022-12-11T15:28:39;15.93;;;6.82;;
62071;SDS011;48031;48.542;13.232;2022-12-11T15:32:41;15.13;;;7.05;;
62071;SDS011;48031;48.542;13.232;2022-12-11T15:36:43;14.05;;;7.15;;
62071;SDS011;48031;48.542;13.232;2022-12-11T15:40:45;15.13;;;7.32;;
62071;SDS011;48031;48.542;13.232;2022-12-11T15:44:46;14.82;;;7.70;;
62071;SDS011;48031;48.542;13.232;2022-12-11T15:48:48;17.60;;;7.97;;
62071;SDS011;48031;48.542;13.232;2022-12-11T15:52:51;13.48;;;6.75;;
62071;SDS011;48031;48.542;13.232;2022-12-11T15:56:54;11.20;;;6.00;;
62071;SDS011;48031;48.542;13.232;2022-12-11T16:00:56;12.63;;;5.97;;
62071;SDS011;48031;48.542;13.232;2022-12-11T16:04:58;11.73;;;6.05;;
62071;SDS011;48031;48.542;13.232;2022-12-11T16:09:00;14.48;;;6.95;;
62071;SDS011;48031;48.542;13.232;2022-12-11T16:13:04;12.00;;;5.68;;
62071;SDS011;48031;48.542;13.232;2022-12-11T16:17:06;9.55;;;5.13;;
62071;SDS011;48031;48.542;13.232;2022-12-11T16:21:09;10.50;;;5.22;;
62071;SDS011;48031;48.542;13.232;2022-12-11T16:25:11;12.05;;;6.22;;
62071;SDS011;48031;48.542;13.232;2022-12-11T16:29:13;16.05;;;6.40;;
62071;SDS011;48031;48.542;13.232;2022-12-11T16:33:15;8.25;;;4.47;;
62071;SDS011;48031;48.542;13.232;2022-12-11T16:37:16;7.50;;;4.15;;
62071;SDS011;48031;48.542;13.232;2022-12-11T16:41:18;10.77;;;5.07;;
62071;SDS011;48031;48.542;13.232;2022-12-11T16:45:22;11.10;;;5.57;;
62071;SDS011;48031;48.542;13.232;2022-12-11T16:49:25;14.48;;;6.22;;
62071;SDS011;48031;48.542;13.232;2022-12-11T16:53:27;10.65;;;5.32;;
62071;SDS011;48031;48.542;13.232;2022-12-11T16:57:29;12.38;;;6.18;;
62071;SDS011;48031;48.542;13.232;2022-12-11T17:01:31;13.38;;;6.05;;
62071;SDS011;48031;48.542;13.232;2022-12-11T17:05:33;11.48;;;5.53;;
62071;SDS011;48031;48.542;13.232;2022-12-11T17:09:35;11.70;;;5.72;;
62071;SDS011;48031;48.542;13.232;2022-12-11T17:13:37;9.75;;;5.30;;
62071;SDS011;48031;48.542;13.232;2022-12-11T17:17:39;11.30;;;6.07;;
62071;SDS011;48031;48.542;13.232;2022-12-11T17:21:43;12.95;;;6.25;;
62071;SDS011;48031;48.542;13.232;2022-12-11T17:25:52;13.18;;;6.20;;
62071;SDS011;48031;48.542;13.232;2022-12-11T17:29:54;14.70;;;6.88;;
62071;SDS011;48031;48.542;13.232;2022-12-11T17:33:57;14.38;;;6.70;;
62071;SDS011;48031;48.542;13.232;2022-12-11T17:38:01;14.52;;;7.13;;
62071;SDS011;48031;48.542;13.232;2022-12-11T17:42:03;14.13;;;7.28;;
62071;SDS011;48031;48.542;13.232;2022-12-11T17:46:05;14.63;;;6.85;;
62071;SDS011;48031;48.542;13.232;2022-12-11T17:50:07;15.45;;;7.25;;
62071;SDS011;48031;48.542;13.232;2022-12-11T17:54:10;11.07;;;5.50;;
62071;SDS011;48031;48.542;13.232;2022-12-11T17:58:12;12.63;;;6.22;;
62071;SDS011;48031;48.542;13.232;2022-12-11T18:06:20;14.23;;;5.95;;
62071;SDS011;48031;48.542;13.232;2022-12-11T18:10:23;11.90;;;5.72;;
62071;SDS011;48031;48.542;13.232;2022-12-11T18:14:25;14.63;;;6.85;;
62071;SDS011;48031;48.542;13.232;2022-12-11T18:18:27;11.13;;;5.50;;
62071;SDS011;48031;48.542;13.232;2022-12-11T18:22:29;13.07;;;5.82;;
62071;SDS011;48031;48.542;13.232;2022-12-11T18:26:31;9.23;;;4.72;;
62071;SDS011;48031;48.542;13.232;2022-12-11T18:30:32;6.82;;;3.85;;
62071;SDS011;48031;48.542;13.232;2022-12-11T18:34:34;6.93;;;3.78;;
62071;SDS011;48031;48.542;13.232;2022-12-11T18:38:36;9.32;;;4.90;;
62071;SDS011;48031;48.542;13.232;2022-12-11T18:42:38;10.48;;;5.07;;
62071;SDS011;48031;48.542;13.232;2022-12-11T18:46:40;9.07;;;5.20;;
62071;SDS011;48031;48.542;13.232;2022-12-11T18:50:45;11.82;;;6.25;;
62071;SDS011;48031;48.542;13.232;2022-12-11T18:54:48;13.80;;;6.20;;
62071;SDS011;48031;48.542;13.232;2022-12-11T18:58:52;10.93;;;5.53;;
62071;SDS011;48031;48.542;13.232;2022-12-11T19:02:54;11.75;;;5.25;;
62071;SDS011;48031;48.542;13.232;2022-12-11T19:06:58;12.55;;;6.10;;
62071;SDS011;48031;48.542;13.232;2022-12-11T19:11:01;13.02;;;6.65;;
62071;SDS011;48031;48.542;13.232;2022-12-11T19:15:03;13.60;;;5.85;;
62071;SDS011;48031;48.542;13.232;2022-12-11T19:19:07;10.48;;;5.18;;
62071;SDS011;48031;48.542;13.232;2022-12-11T19:23:11;10.20;;;5.43;;
62071;SDS011;48031;48.542;13.232;2022-12-11T19:27:13;17.00;;;7.70;;
62071;SDS011;48031;48.542;13.232;2022-12-11T19:31:16;12.13;;;5.93;;
62071;SDS011;48031;48.542;13.232;2022-12-11T19:35:19;11.88;;;6.22;;
62071;SDS011;48031;48.542;13.232;2022-12-11T19:39:21;11.32;;;6.10;;
62071;SDS011;48031;48.542;13.232;2022-12-11T19:43:22;13.82;;;6.63;;
62071;SDS011;48031;48.542;13.232;2022-12-11T19:47:24;13.13;;;6.32;;
62071;SDS011;48031;48.542;13.232;2022-12-11T19:51:30;14.40;;;6.63;;
62071;SDS011;48031;48.542;13.232;2022-12-11T19:55:34;12.38;;;6.18;;
62071;SDS011;48031;48.542;13.232;2022-12-11T19:59:36;13.55;;;6.80;;
62071;SDS011;48031;48.542;13.232;2022-12-11T20:03:37;15.18;;;7.03;;
62071;SDS011;48031;48.542;13.232;2022-12-11T20:07:39;14.27;;;7.82;;
62071;SDS011;48031;48.542;13.232;2022-12-11T20:11:41;18.95;;;7.68;;
62071;SDS011;48031;48.542;13.232;2022-12-11T20:15:44;15.63;;;7.35;;
62071;SDS011;48031;48.542;13.232;2022-12-11T20:19:46;12.25;;;5.88;;
62071;SDS011;48031;48.542;13.232;2022-12-11T20:23:48;15.10;;;7.20;;
62071;SDS011;48031;48.542;13.232;2022-12-11T20:27:50;10.70;;;5.22;;
62071;SDS011;48031;48.542;13.232;2022-12-11T20:31:52;13.95;;;7.38;;
62071;SDS011;48031;48.542;13.232;2022-12-11T20:35:54;14.20;;;6.53;;
62071;SDS011;48031;48.542;13.232;2022-12-11T20:39:56;17.23;;;7.05;;
62071;SDS011;48031;48.542;13.232;2022-12-11T20:43:58;15.93;;;7.10;;
62071;SDS011;48031;48.542;13.232;2022-12-11T20:48:00;14.90;;;7.28;;
62071;SDS011;48031;48.542;13.232;2022-12-11T20:52:02;13.23;;;6.43;;
62071;SDS011;48031;48.542;13.232;2022-12-11T20:56:13;16.90;;;7.63;;
62071;SDS011;48031;48.542;13.232;2022-12-11T21:00:17;15.73;;;7.53;;
62071;SDS011;48031;48.542;13.232;2022-12-11T21:04:19;16.60;;;6.97;;
62071;SDS011;48031;48.542;13.232;2022-12-11T21:08:21;13.68;;;7.15;;
62071;SDS011;48031;48.542;13.232;2022-12-11T21:12:23;9.43;;;5.30;;
62071;SDS011;48031;48.542;13.232;2022-12-11T21:16:33;9.70;;;4.78;;
62071;SDS011;48031;48.542;13.232;2022-12-11T21:20:37;12.83;;;7.13;;
62071;SDS011;48031;48.542;13.232;2022-12-11T21:24:39;13.27;;;6.57;;
62071;SDS011;48031;48.542;13.232;2022-12-11T21:28:42;12.73;;;5.78;;
62071;SDS011;48031;48.542;13.232;2022-12-11T21:32:44;10.00;;;5.10;;
62071;SDS011;48031;48.542;13.232;2022-12-11T21:36:46;12.45;;;5.95;;
62071;SDS011;48031;48.542;13.232;2022-12-11T21:40:48;15.35;;;6.72;;
62071;SDS011;48031;48.542;13.232;2022-12-11T21:44:51;11.32;;;5.30;;
62071;SDS011;48031;48.542;13.232;2022-12-11T21:49:12;10.40;;;5.68;;
62071;SDS011;48031;48.542;13.232;2022-12-11T21:53:14;15.07;;;6.57;;
62071;SDS011;48031;48.542;13.232;2022-12-11T21:57:16;12.57;;;5.35;;
62071;SDS011;48031;48.542;13.232;2022-12-11T22:01:26;15.60;;;7.65;;
62071;SDS011;48031;48.542;13.232;2022-12-11T22:05:31;14.38;;;7.13;;
62071;SDS011;48031;48.542;13.232;2022-12-11T22:09:33;11.23;;;5.57;;
62071;SDS011;48031;48.542;13.232;2022-12-11T22:13:35;12.10;;;6.03;;
62071;SDS011;48031;48.542;13.232;2022-12-11T22:17:37;11.68;;;6.32;;
62071;SDS011;48031;48.542;13.232;2022-12-11T22:21:38;15.85;;;7.10;;
62071;SDS011;48031;48.542;13.232;2022-12-11T22:25:41;9.52;;;5.57;;
62071;SDS011;48031;48.542;13.232;2022-12-11T22:29:43;15.48;;;6.70;;
62071;SDS011;48031;48.542;13.232;2022-12-11T22:33:45;10.02;;;5.53;;
62071;SDS011;48031;48.542;13.232;2022-12-11T22:37:47;16.00;;;6.70;;
62071;SDS011;48031;48.542;13.232;2022-12-11T22:41:49;16.10;;;7.15;;
62071;SDS011;48031;48.542;13.232;2022-12-11T22:45:51;10.48;;;5.57;;
62071;SDS011;48031;48.542;13.232;2022-12-11T22:49:53;11.77;;;6.03;;
62071;SDS011;48031;48.542;13.232;2022-12-11T22:53:56;11.52;;;5.80;;
62071;SDS011;48031;48.542;13.232;2022-12-11T22:57:58;14.00;;;5.63;;
62071;SDS011;48031;48.542;13.232;2022-12-11T23:02:00;18.13;;;7.93;;
62071;SDS011;48031;48.542;13.232;2022-12-11T23:06:05;15.68;;;7.20;;
62071;SDS011;48031;48.542;13.232;2022-12-11T23:10:09;13.45;;;6.13;;
62071;SDS011;48031;48.542;13.232;2022-12-11T23:14:14;14.15;;;6.43;;
62071;SDS011;48031;48.542;13.232;2022-12-11T23:18:17;10.45;;;4.97;;
62071;SDS011;48031;48.542;13.232;2022-12-11T23:22:19;11.18;;;5.15;;
62071;SDS011;48031;48.542;13.232;2022-12-11T23:26:21;10.30;;;4.72;;
62071;SDS011;48031;48.542;13.232;2022-12-11T23:30:23;11.15;;;5.70;;
62071;SDS011;48031;48.542;13.232;2022-12-11T23:34:25;11.88;;;4.90;;
62071;SDS011;48031;48.542;13.232;2022-12-11T23:38:27;8.18;;;4.32;;
62071;SDS011;48031;48.542;13.232;2022-12-11T23:42:29;13.63;;;5.05;;
62071;SDS011;48031;48.542;13.232;2022-12-11T23:46:31;9.05;;;4.45;;
62071;SDS011;48031;48.542;13.232;2022-12-11T23:50:33;7.65;;;4.13;;
62071;SDS011;48031;48.542;13.232;2022-12-11T23:54:36;12.30;;;5.50;;
62071;SDS011;48031;48.542;13.232;2022-12-11T23:58:38;10.93;;;5.57;;
